sensor_id;sensor_type;location;lat;lon;timestamp;P1;durP1;ratioP1;P2;durP2;ratioP2
9007;SDS011;62813;51.424;6.762;2023-02-01T00:00:49;16.43;;;5.50;;
9007;SDS011;62813;51.424;6.762;2023-02-01T00:03:15;17.97;;;5.90;;
9007;SDS011;62813;51.424;6.762;2023-02-01T00:05:54;18.23;;;5.63;;
9007;SDS011;62813;51.424;6.762;2023-02-01T00:08:21;15.07;;;5.30;;
9007;SDS011;62813;51.424;6.762;2023-02-01T00:10:47;18.73;;;5.90;;
9007;SDS011;62813;51.424;6.762;2023-02-01T00:13:14;14.90;;;5.00;;
9007;SDS011;62813;51.424;6.762;2023-02-01T00:15:40;16.63;;;5.17;;
9007;SDS011;62813;51.424;6.762;2023-02-01T00:18:07;19.03;;;4.83;;
9007;SDS011;62813;51.424;6.762;2023-02-01T00:20:33;19.23;;;4.57;;
9007;SDS011;62813;51.424;6.762;2023-02-01T00:23:00;14.37;;;3.93;;
9007;SDS011;62813;51.424;6.762;2023-02-01T00:25:27;13.23;;;4.80;;
9007;SDS011;62813;51.424;6.762;2023-02-01T00:27:53;9.87;;;4.50;;
9007;SDS011;62813;51.424;6.762;2023-02-01T00:30:21;12.20;;;4.30;;
9007;SDS011;62813;51.424;6.762;2023-02-01T00:32:48;16.90;;;4.73;;
9007;SDS011;62813;51.424;6.762;2023-02-01T00:35:14;19.73;;;5.07;;
9007;SDS011;62813;51.424;6.762;2023-02-01T00:37:41;16.00;;;4.47;;
9007;SDS011;62813;51.424;6.762;2023-02-01T00:40:07;12.60;;;4.03;;
9007;SDS011;62813;51.424;6.762;2023-02-01T00:42:34;13.80;;;4.53;;
9007;SDS011;62813;51.424;6.762;2023-02-01T00:45:01;16.03;;;4.67;;
9007;SDS011;62813;51.424;6.762;2023-02-01T00:47:28;12.33;;;4.67;;
9007;SDS011;62813;51.424;6.762;2023-02-01T00:49:54;19.37;;;5.30;;
9007;SDS011;62813;51.424;6.762;2023-02-01T00:52:21;13.43;;;4.73;;
9007;SDS011;62813;51.424;6.762;2023-02-01T00:54:47;14.90;;;5.17;;
9007;SDS011;62813;51.424;6.762;2023-02-01T00:57:14;18.33;;;5.80;;
9007;SDS011;62813;51.424;6.762;2023-02-01T00:59:40;20.63;;;6.27;;
9007;SDS011;62813;51.424;6.762;2023-02-01T01:02:06;19.03;;;6.73;;
9007;SDS011;62813;51.424;6.762;2023-02-01T01:04:33;21.23;;;7.07;;
9007;SDS011;62813;51.424;6.762;2023-02-01T01:07:00;21.10;;;6.83;;
9007;SDS011;62813;51.424;6.762;2023-02-01T01:09:26;12.57;;;6.40;;
9007;SDS011;62813;51.424;6.762;2023-02-01T01:11:53;14.17;;;6.73;;
9007;SDS011;62813;51.424;6.762;2023-02-01T01:14:19;14.60;;;6.10;;
9007;SDS011;62813;51.424;6.762;2023-02-01T01:16:46;14.73;;;6.83;;
9007;SDS011;62813;51.424;6.762;2023-02-01T01:19:12;15.77;;;6.57;;
9007;SDS011;62813;51.424;6.762;2023-02-01T01:21:39;16.87;;;6.97;;
9007;SDS011;62813;51.424;6.762;2023-02-01T01:24:05;20.63;;;6.47;;
9007;SDS011;62813;51.424;6.762;2023-02-01T01:26:32;11.93;;;6.03;;
9007;SDS011;62813;51.424;6.762;2023-02-01T01:28:59;17.43;;;6.50;;
9007;SDS011;62813;51.424;6.762;2023-02-01T01:31:26;14.40;;;6.10;;
9007;SDS011;62813;51.424;6.762;2023-02-01T01:33:54;19.20;;;6.50;;
9007;SDS011;62813;51.424;6.762;2023-02-01T01:36:22;15.97;;;6.30;;
9007;SDS011;62813;51.424;6.762;2023-02-01T01:38:49;14.43;;;6.47;;
9007;SDS011;62813;51.424;6.762;2023-02-01T01:41:18;20.27;;;7.33;;
9007;SDS011;62813;51.424;6.762;2023-02-01T01:46:20;17.57;;;6.13;;
9007;SDS011;62813;51.424;6.762;2023-02-01T01:49:02;18.40;;;7.07;;
9007;SDS011;62813;51.424;6.762;2023-02-01T01:51:35;13.17;;;5.00;;
9007;SDS011;62813;51.424;6.762;2023-02-01T01:54:07;16.90;;;5.80;;
9007;SDS011;62813;51.424;6.762;2023-02-01T01:56:39;17.10;;;5.07;;
9007;SDS011;62813;51.424;6.762;2023-02-01T01:59:07;12.73;;;4.87;;
9007;SDS011;62813;51.424;6.762;2023-02-01T02:01:34;12.07;;;4.70;;
9007;SDS011;62813;51.424;6.762;2023-02-01T02:04:01;11.27;;;5.23;;
9007;SDS011;62813;51.424;6.762;2023-02-01T02:09:37;23.87;;;4.77;;
9007;SDS011;62813;51.424;6.762;2023-02-01T02:12:08;16.03;;;4.97;;
9007;SDS011;62813;51.424;6.762;2023-02-01T02:14:35;18.23;;;5.30;;
9007;SDS011;62813;51.424;6.762;2023-02-01T02:30:42;14.50;;;4.07;;
9007;SDS011;62813;51.424;6.762;2023-02-01T02:42:19;17.73;;;3.87;;
9007;SDS011;62813;51.424;6.762;2023-02-01T02:45:30;15.47;;;3.67;;
9007;SDS011;62813;51.424;6.762;2023-02-01T02:48:51;13.30;;;4.77;;
9007;SDS011;62813;51.424;6.762;2023-02-01T02:54:35;19.47;;;4.10;;
9007;SDS011;62813;51.424;6.762;2023-02-01T02:57:13;11.70;;;4.00;;
9007;SDS011;62813;51.424;6.762;2023-02-01T03:00:04;14.40;;;3.73;;
9007;SDS011;62813;51.424;6.762;2023-02-01T03:02:53;10.10;;;3.60;;
9007;SDS011;62813;51.424;6.762;2023-02-01T03:05:44;17.20;;;4.67;;
9007;SDS011;62813;51.424;6.762;2023-02-01T03:13:47;14.00;;;4.20;;
9007;SDS011;62813;51.424;6.762;2023-02-01T03:16:33;17.27;;;4.00;;
9007;SDS011;62813;51.424;6.762;2023-02-01T03:19:08;15.87;;;4.50;;
9007;SDS011;62813;51.424;6.762;2023-02-01T03:21:59;14.03;;;4.40;;
9007;SDS011;62813;51.424;6.762;2023-02-01T03:24:38;21.73;;;4.10;;
9007;SDS011;62813;51.424;6.762;2023-02-01T03:29:48;21.47;;;4.93;;
9007;SDS011;62813;51.424;6.762;2023-02-01T03:32:20;14.50;;;4.27;;
9007;SDS011;62813;51.424;6.762;2023-02-01T03:34:47;23.87;;;5.33;;
9007;SDS011;62813;51.424;6.762;2023-02-01T03:37:16;17.60;;;4.40;;
9007;SDS011;62813;51.424;6.762;2023-02-01T03:39:53;15.47;;;4.60;;
9007;SDS011;62813;51.424;6.762;2023-02-01T03:45:02;22.17;;;5.00;;
9007;SDS011;62813;51.424;6.762;2023-02-01T03:47:44;19.80;;;4.70;;
9007;SDS011;62813;51.424;6.762;2023-02-01T03:50:15;15.37;;;4.40;;
9007;SDS011;62813;51.424;6.762;2023-02-01T03:52:51;18.37;;;4.60;;
9007;SDS011;62813;51.424;6.762;2023-02-01T03:55:23;16.33;;;4.47;;
9007;SDS011;62813;51.424;6.762;2023-02-01T03:57:52;14.13;;;4.20;;
9007;SDS011;62813;51.424;6.762;2023-02-01T04:00:23;21.70;;;4.70;;
9007;SDS011;62813;51.424;6.762;2023-02-01T04:02:51;21.57;;;5.23;;
9007;SDS011;62813;51.424;6.762;2023-02-01T04:05:19;19.40;;;5.03;;
9007;SDS011;62813;51.424;6.762;2023-02-01T04:07:46;19.37;;;4.53;;
9007;SDS011;62813;51.424;6.762;2023-02-01T04:10:13;19.20;;;4.87;;
9007;SDS011;62813;51.424;6.762;2023-02-01T04:12:39;16.73;;;4.33;;
9007;SDS011;62813;51.424;6.762;2023-02-01T04:15:07;14.53;;;4.67;;
9007;SDS011;62813;51.424;6.762;2023-02-01T04:17:34;13.33;;;4.60;;
9007;SDS011;62813;51.424;6.762;2023-02-01T04:20:00;13.83;;;4.30;;
9007;SDS011;62813;51.424;6.762;2023-02-01T04:22:27;17.13;;;4.50;;
9007;SDS011;62813;51.424;6.762;2023-02-01T04:24:54;18.87;;;4.00;;
9007;SDS011;62813;51.424;6.762;2023-02-01T04:27:21;18.27;;;4.97;;
9007;SDS011;62813;51.424;6.762;2023-02-01T04:29:47;20.70;;;4.70;;
9007;SDS011;62813;51.424;6.762;2023-02-01T04:32:16;21.60;;;5.20;;
9007;SDS011;62813;51.424;6.762;2023-02-01T04:34:42;14.50;;;4.50;;
9007;SDS011;62813;51.424;6.762;2023-02-01T04:37:09;13.20;;;4.30;;
9007;SDS011;62813;51.424;6.762;2023-02-01T04:39:36;14.87;;;4.33;;
9007;SDS011;62813;51.424;6.762;2023-02-01T04:42:02;18.70;;;4.60;;
9007;SDS011;62813;51.424;6.762;2023-02-01T04:44:29;20.77;;;4.40;;
9007;SDS011;62813;51.424;6.762;2023-02-01T04:46:56;18.07;;;4.93;;
9007;SDS011;62813;51.424;6.762;2023-02-01T04:49:22;16.13;;;4.50;;
9007;SDS011;62813;51.424;6.762;2023-02-01T04:51:51;20.03;;;4.57;;
9007;SDS011;62813;51.424;6.762;2023-02-01T04:54:18;23.33;;;4.93;;
9007;SDS011;62813;51.424;6.762;2023-02-01T04:56:44;19.60;;;4.67;;
9007;SDS011;62813;51.424;6.762;2023-02-01T04:59:11;16.80;;;5.07;;
9007;SDS011;62813;51.424;6.762;2023-02-01T05:01:38;18.07;;;4.47;;
9007;SDS011;62813;51.424;6.762;2023-02-01T05:04:05;20.33;;;4.70;;
9007;SDS011;62813;51.424;6.762;2023-02-01T05:06:31;22.37;;;4.07;;
9007;SDS011;62813;51.424;6.762;2023-02-01T05:08:58;27.83;;;4.90;;
9007;SDS011;62813;51.424;6.762;2023-02-01T05:11:24;15.23;;;4.67;;
9007;SDS011;62813;51.424;6.762;2023-02-01T05:14:09;20.57;;;4.30;;
9007;SDS011;62813;51.424;6.762;2023-02-01T05:16:36;13.87;;;3.60;;
9007;SDS011;62813;51.424;6.762;2023-02-01T05:19:02;21.00;;;5.13;;
9007;SDS011;62813;51.424;6.762;2023-02-01T05:21:30;26.40;;;4.50;;
9007;SDS011;62813;51.424;6.762;2023-02-01T05:23:56;18.03;;;5.23;;
9007;SDS011;62813;51.424;6.762;2023-02-01T05:26:47;18.37;;;4.80;;
9007;SDS011;62813;51.424;6.762;2023-02-01T05:29:15;22.23;;;4.67;;
9007;SDS011;62813;51.424;6.762;2023-02-01T05:31:44;23.70;;;5.00;;
9007;SDS011;62813;51.424;6.762;2023-02-01T05:34:11;24.87;;;4.43;;
9007;SDS011;62813;51.424;6.762;2023-02-01T05:36:38;14.73;;;4.77;;
9007;SDS011;62813;51.424;6.762;2023-02-01T05:39:05;16.40;;;4.30;;
9007;SDS011;62813;51.424;6.762;2023-02-01T05:41:32;17.17;;;4.33;;
9007;SDS011;62813;51.424;6.762;2023-02-01T05:43:59;22.03;;;4.30;;
9007;SDS011;62813;51.424;6.762;2023-02-01T05:46:25;26.40;;;5.30;;
9007;SDS011;62813;51.424;6.762;2023-02-01T05:48:52;15.10;;;3.77;;
9007;SDS011;62813;51.424;6.762;2023-02-01T05:51:18;22.73;;;4.43;;
9007;SDS011;62813;51.424;6.762;2023-02-01T05:53:45;18.93;;;4.53;;
9007;SDS011;62813;51.424;6.762;2023-02-01T05:56:11;21.23;;;5.27;;
9007;SDS011;62813;51.424;6.762;2023-02-01T05:58:38;18.53;;;4.43;;
9007;SDS011;62813;51.424;6.762;2023-02-01T06:01:04;18.50;;;4.40;;
9007;SDS011;62813;51.424;6.762;2023-02-01T06:03:31;20.23;;;5.67;;
9007;SDS011;62813;51.424;6.762;2023-02-01T06:05:58;15.10;;;4.07;;
9007;SDS011;62813;51.424;6.762;2023-02-01T06:08:26;17.23;;;4.57;;
9007;SDS011;62813;51.424;6.762;2023-02-01T06:11:00;19.60;;;3.83;;
9007;SDS011;62813;51.424;6.762;2023-02-01T06:13:27;22.13;;;4.50;;
9007;SDS011;62813;51.424;6.762;2023-02-01T06:15:54;24.17;;;4.67;;
9007;SDS011;62813;51.424;6.762;2023-02-01T06:18:22;16.27;;;4.50;;
9007;SDS011;62813;51.424;6.762;2023-02-01T06:20:56;19.53;;;4.30;;
9007;SDS011;62813;51.424;6.762;2023-02-01T06:23:26;18.80;;;4.63;;
9007;SDS011;62813;51.424;6.762;2023-02-01T06:26:01;16.50;;;4.13;;
9007;SDS011;62813;51.424;6.762;2023-02-01T06:28:30;21.83;;;4.73;;
9007;SDS011;62813;51.424;6.762;2023-02-01T06:30:57;19.00;;;5.43;;
9007;SDS011;62813;51.424;6.762;2023-02-01T06:33:24;22.80;;;5.60;;
9007;SDS011;62813;51.424;6.762;2023-02-01T06:36:01;18.57;;;4.43;;
9007;SDS011;62813;51.424;6.762;2023-02-01T06:38:30;20.43;;;4.47;;
9007;SDS011;62813;51.424;6.762;2023-02-01T06:40:57;18.90;;;4.50;;
9007;SDS011;62813;51.424;6.762;2023-02-01T06:43:25;24.63;;;4.70;;
9007;SDS011;62813;51.424;6.762;2023-02-01T06:45:53;25.00;;;4.50;;
9007;SDS011;62813;51.424;6.762;2023-02-01T06:48:20;21.43;;;5.00;;
9007;SDS011;62813;51.424;6.762;2023-02-01T06:50:47;18.20;;;5.37;;
9007;SDS011;62813;51.424;6.762;2023-02-01T06:53:13;22.70;;;5.00;;
9007;SDS011;62813;51.424;6.762;2023-02-01T06:55:40;19.03;;;4.93;;
9007;SDS011;62813;51.424;6.762;2023-02-01T06:58:06;24.63;;;4.37;;
9007;SDS011;62813;51.424;6.762;2023-02-01T07:00:33;15.20;;;4.27;;
9007;SDS011;62813;51.424;6.762;2023-02-01T07:03:00;20.27;;;4.97;;
9007;SDS011;62813;51.424;6.762;2023-02-01T07:05:27;16.37;;;4.20;;
9007;SDS011;62813;51.424;6.762;2023-02-01T07:07:53;21.40;;;4.50;;
9007;SDS011;62813;51.424;6.762;2023-02-01T07:10:20;18.43;;;5.00;;
9007;SDS011;62813;51.424;6.762;2023-02-01T07:12:47;17.13;;;3.90;;
9007;SDS011;62813;51.424;6.762;2023-02-01T07:15:13;19.37;;;4.60;;
9007;SDS011;62813;51.424;6.762;2023-02-01T07:17:40;20.17;;;5.10;;
9007;SDS011;62813;51.424;6.762;2023-02-01T07:20:07;20.50;;;6.00;;
9007;SDS011;62813;51.424;6.762;2023-02-01T07:22:34;27.37;;;5.00;;
9007;SDS011;62813;51.424;6.762;2023-02-01T07:25:00;22.03;;;4.83;;
9007;SDS011;62813;51.424;6.762;2023-02-01T07:27:27;22.43;;;3.90;;
9007;SDS011;62813;51.424;6.762;2023-02-01T07:29:53;16.53;;;4.23;;
9007;SDS011;62813;51.424;6.762;2023-02-01T07:32:21;23.43;;;5.60;;
9007;SDS011;62813;51.424;6.762;2023-02-01T07:34:48;19.97;;;5.13;;
9007;SDS011;62813;51.424;6.762;2023-02-01T07:37:14;28.73;;;5.03;;
9007;SDS011;62813;51.424;6.762;2023-02-01T07:39:41;27.13;;;4.93;;
9007;SDS011;62813;51.424;6.762;2023-02-01T07:42:07;21.93;;;4.70;;
9007;SDS011;62813;51.424;6.762;2023-02-01T07:44:34;17.80;;;4.77;;
9007;SDS011;62813;51.424;6.762;2023-02-01T07:47:01;22.83;;;5.00;;
9007;SDS011;62813;51.424;6.762;2023-02-01T07:49:27;27.90;;;5.17;;
9007;SDS011;62813;51.424;6.762;2023-02-01T07:51:54;22.43;;;5.00;;
9007;SDS011;62813;51.424;6.762;2023-02-01T07:54:21;24.47;;;5.67;;
9007;SDS011;62813;51.424;6.762;2023-02-01T07:56:47;19.97;;;4.67;;
9007;SDS011;62813;51.424;6.762;2023-02-01T07:59:14;23.33;;;5.20;;
9007;SDS011;62813;51.424;6.762;2023-02-01T08:01:42;25.47;;;5.53;;
9007;SDS011;62813;51.424;6.762;2023-02-01T08:04:09;24.53;;;5.50;;
9007;SDS011;62813;51.424;6.762;2023-02-01T08:06:38;21.10;;;5.53;;
9007;SDS011;62813;51.424;6.762;2023-02-01T08:09:06;24.30;;;5.67;;
9007;SDS011;62813;51.424;6.762;2023-02-01T08:11:37;25.93;;;4.87;;
9007;SDS011;62813;51.424;6.762;2023-02-01T08:14:04;21.30;;;4.47;;
9007;SDS011;62813;51.424;6.762;2023-02-01T08:16:31;25.27;;;5.80;;
9007;SDS011;62813;51.424;6.762;2023-02-01T08:18:59;23.60;;;5.33;;
9007;SDS011;62813;51.424;6.762;2023-02-01T08:21:26;21.93;;;4.90;;
9007;SDS011;62813;51.424;6.762;2023-02-01T08:24:06;22.53;;;5.93;;
9007;SDS011;62813;51.424;6.762;2023-02-01T08:26:34;20.60;;;5.00;;
9007;SDS011;62813;51.424;6.762;2023-02-01T08:29:02;18.43;;;4.70;;
9007;SDS011;62813;51.424;6.762;2023-02-01T08:31:30;18.63;;;4.80;;
9007;SDS011;62813;51.424;6.762;2023-02-01T08:33:59;27.40;;;5.33;;
9007;SDS011;62813;51.424;6.762;2023-02-01T08:36:28;24.83;;;5.30;;
9007;SDS011;62813;51.424;6.762;2023-02-01T08:38:56;25.60;;;6.03;;
9007;SDS011;62813;51.424;6.762;2023-02-01T08:41:24;26.43;;;5.30;;
9007;SDS011;62813;51.424;6.762;2023-02-01T08:43:52;30.77;;;5.20;;
9007;SDS011;62813;51.424;6.762;2023-02-01T08:46:20;18.70;;;4.93;;
9007;SDS011;62813;51.424;6.762;2023-02-01T08:48:48;18.90;;;5.20;;
9007;SDS011;62813;51.424;6.762;2023-02-01T08:51:16;22.50;;;5.57;;
9007;SDS011;62813;51.424;6.762;2023-02-01T08:53:44;21.30;;;4.53;;
9007;SDS011;62813;51.424;6.762;2023-02-01T08:56:12;17.50;;;4.30;;
9007;SDS011;62813;51.424;6.762;2023-02-01T08:58:40;26.27;;;5.70;;
9007;SDS011;62813;51.424;6.762;2023-02-01T09:01:08;26.87;;;5.27;;
9007;SDS011;62813;51.424;6.762;2023-02-01T09:03:40;20.50;;;4.60;;
9007;SDS011;62813;51.424;6.762;2023-02-01T09:06:08;20.40;;;4.80;;
9007;SDS011;62813;51.424;6.762;2023-02-01T09:08:37;17.30;;;5.53;;
9007;SDS011;62813;51.424;6.762;2023-02-01T09:11:06;15.57;;;4.57;;
9007;SDS011;62813;51.424;6.762;2023-02-01T09:13:37;19.73;;;5.50;;
9007;SDS011;62813;51.424;6.762;2023-02-01T09:16:04;36.63;;;6.10;;
9007;SDS011;62813;51.424;6.762;2023-02-01T09:18:31;18.47;;;4.83;;
9007;SDS011;62813;51.424;6.762;2023-02-01T09:21:03;42.87;;;6.87;;
9007;SDS011;62813;51.424;6.762;2023-02-01T09:23:30;19.80;;;4.23;;
9007;SDS011;62813;51.424;6.762;2023-02-01T09:26:03;17.40;;;4.73;;
9007;SDS011;62813;51.424;6.762;2023-02-01T09:28:30;22.90;;;5.27;;
9007;SDS011;62813;51.424;6.762;2023-02-01T09:30:58;15.50;;;4.13;;
9007;SDS011;62813;51.424;6.762;2023-02-01T09:33:26;21.53;;;5.80;;
9007;SDS011;62813;51.424;6.762;2023-02-01T09:35:57;23.33;;;5.20;;
9007;SDS011;62813;51.424;6.762;2023-02-01T09:38:28;19.53;;;4.87;;
9007;SDS011;62813;51.424;6.762;2023-02-01T09:40:55;20.70;;;5.03;;
9007;SDS011;62813;51.424;6.762;2023-02-01T09:46:18;27.40;;;4.90;;
9007;SDS011;62813;51.424;6.762;2023-02-01T09:48:59;22.27;;;4.47;;
9007;SDS011;62813;51.424;6.762;2023-02-01T09:51:31;23.77;;;5.47;;
9007;SDS011;62813;51.424;6.762;2023-02-01T09:54:17;23.07;;;5.77;;
9007;SDS011;62813;51.424;6.762;2023-02-01T09:56:48;16.73;;;4.70;;
9007;SDS011;62813;51.424;6.762;2023-02-01T10:02:04;25.40;;;4.57;;
9007;SDS011;62813;51.424;6.762;2023-02-01T10:04:37;20.17;;;4.63;;
9007;SDS011;62813;51.424;6.762;2023-02-01T10:07:09;20.47;;;5.23;;
9007;SDS011;62813;51.424;6.762;2023-02-01T10:15:15;22.00;;;5.13;;
9007;SDS011;62813;51.424;6.762;2023-02-01T10:26:45;20.83;;;4.63;;
9007;SDS011;62813;51.424;6.762;2023-02-01T10:29:20;26.17;;;5.13;;
9007;SDS011;62813;51.424;6.762;2023-02-01T10:31:50;19.97;;;4.67;;
9007;SDS011;62813;51.424;6.762;2023-02-01T10:34:26;18.97;;;4.63;;
9007;SDS011;62813;51.424;6.762;2023-02-01T10:37:14;23.17;;;4.57;;
9007;SDS011;62813;51.424;6.762;2023-02-01T10:39:48;17.53;;;4.53;;
9007;SDS011;62813;51.424;6.762;2023-02-01T10:42:17;20.93;;;5.20;;
9007;SDS011;62813;51.424;6.762;2023-02-01T10:44:46;19.90;;;5.30;;
9007;SDS011;62813;51.424;6.762;2023-02-01T10:47:14;24.13;;;4.83;;
9007;SDS011;62813;51.424;6.762;2023-02-01T10:55:28;18.83;;;4.80;;
9007;SDS011;62813;51.424;6.762;2023-02-01T10:58:04;27.33;;;5.70;;
9007;SDS011;62813;51.424;6.762;2023-02-01T11:00:45;22.60;;;4.97;;
9007;SDS011;62813;51.424;6.762;2023-02-01T11:03:34;20.33;;;4.77;;
9007;SDS011;62813;51.424;6.762;2023-02-01T11:06:14;18.83;;;5.40;;
9007;SDS011;62813;51.424;6.762;2023-02-01T11:08:53;19.87;;;4.93;;
9007;SDS011;62813;51.424;6.762;2023-02-01T11:11:21;16.30;;;4.77;;
9007;SDS011;62813;51.424;6.762;2023-02-01T11:13:52;12.67;;;4.13;;
9007;SDS011;62813;51.424;6.762;2023-02-01T11:16:21;20.13;;;4.33;;
9007;SDS011;62813;51.424;6.762;2023-02-01T11:18:56;20.33;;;4.57;;
9007;SDS011;62813;51.424;6.762;2023-02-01T11:21:24;13.90;;;4.60;;
9007;SDS011;62813;51.424;6.762;2023-02-01T11:23:50;21.40;;;5.00;;
9007;SDS011;62813;51.424;6.762;2023-02-01T11:26:24;25.23;;;5.17;;
9007;SDS011;62813;51.424;6.762;2023-02-01T11:29:13;14.53;;;4.23;;
9007;SDS011;62813;51.424;6.762;2023-02-01T11:31:40;19.23;;;4.17;;
9007;SDS011;62813;51.424;6.762;2023-02-01T11:34:14;23.93;;;4.47;;
9007;SDS011;62813;51.424;6.762;2023-02-01T11:36:47;22.07;;;4.53;;
9007;SDS011;62813;51.424;6.762;2023-02-01T11:39:25;18.67;;;4.43;;
9007;SDS011;62813;51.424;6.762;2023-02-01T11:44:36;20.03;;;4.67;;
9007;SDS011;62813;51.424;6.762;2023-02-01T11:47:20;17.00;;;4.73;;
9007;SDS011;62813;51.424;6.762;2023-02-01T11:49:47;17.37;;;4.67;;
9007;SDS011;62813;51.424;6.762;2023-02-01T11:57:41;16.90;;;4.13;;
9007;SDS011;62813;51.424;6.762;2023-02-01T12:00:24;21.63;;;4.77;;
9007;SDS011;62813;51.424;6.762;2023-02-01T12:28:32;18.07;;;4.07;;
9007;SDS011;62813;51.424;6.762;2023-02-01T12:31:20;16.20;;;3.60;;
9007;SDS011;62813;51.424;6.762;2023-02-01T12:39:40;19.63;;;4.07;;
9007;SDS011;62813;51.424;6.762;2023-02-01T12:42:19;21.53;;;4.17;;
9007;SDS011;62813;51.424;6.762;2023-02-01T12:44:55;14.53;;;3.47;;
9007;SDS011;62813;51.424;6.762;2023-02-01T12:47:35;13.27;;;3.13;;
9007;SDS011;62813;51.424;6.762;2023-02-01T12:52:38;14.43;;;2.90;;
9007;SDS011;62813;51.424;6.762;2023-02-01T12:57:53;27.43;;;6.07;;
9007;SDS011;62813;51.424;6.762;2023-02-01T13:00:40;24.13;;;5.90;;
9007;SDS011;62813;51.424;6.762;2023-02-01T13:03:31;12.93;;;3.50;;
9007;SDS011;62813;51.424;6.762;2023-02-01T13:06:17;18.57;;;3.43;;
9007;SDS011;62813;51.424;6.762;2023-02-01T13:12:12;15.27;;;3.27;;
9007;SDS011;62813;51.424;6.762;2023-02-01T13:14:47;19.37;;;3.33;;
9007;SDS011;62813;51.424;6.762;2023-02-01T13:17:19;15.00;;;3.00;;
9007;SDS011;62813;51.424;6.762;2023-02-01T13:19:56;18.87;;;4.23;;
9007;SDS011;62813;51.424;6.762;2023-02-01T13:27:39;14.97;;;3.60;;
9007;SDS011;62813;51.424;6.762;2023-02-01T13:30:16;16.37;;;3.90;;
9007;SDS011;62813;51.424;6.762;2023-02-01T13:41:56;18.87;;;4.37;;
9007;SDS011;62813;51.424;6.762;2023-02-01T13:49:45;11.30;;;3.37;;
9007;SDS011;62813;51.424;6.762;2023-02-01T13:52:26;15.80;;;3.77;;
9007;SDS011;62813;51.424;6.762;2023-02-01T13:57:42;18.53;;;4.73;;
9007;SDS011;62813;51.424;6.762;2023-02-01T14:00:24;18.83;;;4.13;;
9007;SDS011;62813;51.424;6.762;2023-02-01T14:13:31;17.33;;;4.00;;
9007;SDS011;62813;51.424;6.762;2023-02-01T14:16:12;17.93;;;4.67;;
9007;SDS011;62813;51.424;6.762;2023-02-01T14:26:19;28.47;;;4.33;;
9007;SDS011;62813;51.424;6.762;2023-02-01T14:28:50;18.13;;;3.97;;
9007;SDS011;62813;51.424;6.762;2023-02-01T14:31:34;18.73;;;4.57;;
9007;SDS011;62813;51.424;6.762;2023-02-01T14:37:03;9.23;;;3.27;;
9007;SDS011;62813;51.424;6.762;2023-02-01T14:39:34;18.03;;;3.73;;
9007;SDS011;62813;51.424;6.762;2023-02-01T14:42:39;15.53;;;3.57;;
9007;SDS011;62813;51.424;6.762;2023-02-01T14:47:46;16.87;;;3.20;;
9007;SDS011;62813;51.424;6.762;2023-02-01T14:55:47;16.10;;;3.90;;
9007;SDS011;62813;51.424;6.762;2023-02-01T15:04:03;18.27;;;3.60;;
9007;SDS011;62813;51.424;6.762;2023-02-01T15:06:38;16.07;;;3.80;;
9007;SDS011;62813;51.424;6.762;2023-02-01T15:09:14;18.80;;;3.60;;
9007;SDS011;62813;51.424;6.762;2023-02-01T15:11:58;17.77;;;3.73;;
9007;SDS011;62813;51.424;6.762;2023-02-01T15:14:25;23.90;;;4.47;;
9007;SDS011;62813;51.424;6.762;2023-02-01T15:16:53;16.40;;;4.10;;
9007;SDS011;62813;51.424;6.762;2023-02-01T15:19:20;14.93;;;3.23;;
9007;SDS011;62813;51.424;6.762;2023-02-01T15:21:49;18.87;;;3.70;;
9007;SDS011;62813;51.424;6.762;2023-02-01T15:24:19;15.37;;;3.87;;
9007;SDS011;62813;51.424;6.762;2023-02-01T15:26:54;16.57;;;4.00;;
9007;SDS011;62813;51.424;6.762;2023-02-01T15:29:23;15.33;;;3.63;;
9007;SDS011;62813;51.424;6.762;2023-02-01T15:31:54;24.80;;;4.40;;
9007;SDS011;62813;51.424;6.762;2023-02-01T15:34:21;22.17;;;3.70;;
9007;SDS011;62813;51.424;6.762;2023-02-01T15:36:47;18.50;;;4.23;;
9007;SDS011;62813;51.424;6.762;2023-02-01T15:39:28;16.80;;;3.73;;
9007;SDS011;62813;51.424;6.762;2023-02-01T15:41:59;15.53;;;3.80;;
9007;SDS011;62813;51.424;6.762;2023-02-01T15:44:38;18.93;;;3.30;;
9007;SDS011;62813;51.424;6.762;2023-02-01T15:47:17;15.87;;;3.40;;
9007;SDS011;62813;51.424;6.762;2023-02-01T15:49:52;13.67;;;4.10;;
9007;SDS011;62813;51.424;6.762;2023-02-01T15:52:25;15.67;;;4.03;;
9007;SDS011;62813;51.424;6.762;2023-02-01T15:55:17;17.80;;;4.03;;
9007;SDS011;62813;51.424;6.762;2023-02-01T15:57:47;17.67;;;4.53;;
9007;SDS011;62813;51.424;6.762;2023-02-01T16:00:27;18.50;;;3.90;;
9007;SDS011;62813;51.424;6.762;2023-02-01T16:03:00;16.97;;;3.27;;
9007;SDS011;62813;51.424;6.762;2023-02-01T16:08:13;16.27;;;3.90;;
9007;SDS011;62813;51.424;6.762;2023-02-01T16:10:45;14.33;;;3.40;;
9007;SDS011;62813;51.424;6.762;2023-02-01T16:13:13;17.40;;;3.40;;
9007;SDS011;62813;51.424;6.762;2023-02-01T16:15:40;19.33;;;3.47;;
9007;SDS011;62813;51.424;6.762;2023-02-01T16:18:08;14.37;;;3.63;;
9007;SDS011;62813;51.424;6.762;2023-02-01T16:20:36;13.87;;;4.17;;
9007;SDS011;62813;51.424;6.762;2023-02-01T16:23:04;17.13;;;3.87;;
9007;SDS011;62813;51.424;6.762;2023-02-01T16:25:32;19.67;;;4.10;;
9007;SDS011;62813;51.424;6.762;2023-02-01T16:27:58;19.97;;;4.10;;
9007;SDS011;62813;51.424;6.762;2023-02-01T16:30:25;18.17;;;4.10;;
9007;SDS011;62813;51.424;6.762;2023-02-01T16:32:55;15.87;;;3.67;;
9007;SDS011;62813;51.424;6.762;2023-02-01T16:35:29;24.77;;;4.37;;
9007;SDS011;62813;51.424;6.762;2023-02-01T16:38:05;23.83;;;4.53;;
9007;SDS011;62813;51.424;6.762;2023-02-01T16:40:39;14.03;;;3.90;;
9007;SDS011;62813;51.424;6.762;2023-02-01T16:45:43;18.80;;;4.00;;
9007;SDS011;62813;51.424;6.762;2023-02-01T16:48:22;13.77;;;4.03;;
9007;SDS011;62813;51.424;6.762;2023-02-01T16:50:57;15.07;;;3.93;;
9007;SDS011;62813;51.424;6.762;2023-02-01T16:53:29;17.47;;;4.97;;
9007;SDS011;62813;51.424;6.762;2023-02-01T16:56:17;16.17;;;3.97;;
9007;SDS011;62813;51.424;6.762;2023-02-01T16:58:47;15.20;;;3.73;;
9007;SDS011;62813;51.424;6.762;2023-02-01T17:01:14;15.57;;;3.67;;
9007;SDS011;62813;51.424;6.762;2023-02-01T17:03:42;12.77;;;3.63;;
9007;SDS011;62813;51.424;6.762;2023-02-01T17:06:16;15.87;;;3.90;;
9007;SDS011;62813;51.424;6.762;2023-02-01T17:08:45;15.50;;;4.13;;
9007;SDS011;62813;51.424;6.762;2023-02-01T17:11:16;20.77;;;3.93;;
9007;SDS011;62813;51.424;6.762;2023-02-01T17:13:43;16.20;;;4.17;;
9007;SDS011;62813;51.424;6.762;2023-02-01T17:18:53;24.43;;;4.80;;
9007;SDS011;62813;51.424;6.762;2023-02-01T17:21:26;20.87;;;4.30;;
9007;SDS011;62813;51.424;6.762;2023-02-01T17:23:54;22.00;;;4.20;;
9007;SDS011;62813;51.424;6.762;2023-02-01T17:26:20;17.50;;;3.80;;
9007;SDS011;62813;51.424;6.762;2023-02-01T17:28:47;19.30;;;4.40;;
9007;SDS011;62813;51.424;6.762;2023-02-01T17:31:14;14.27;;;3.70;;
9007;SDS011;62813;51.424;6.762;2023-02-01T17:33:42;16.80;;;4.00;;
9007;SDS011;62813;51.424;6.762;2023-02-01T17:36:11;23.03;;;4.70;;
9007;SDS011;62813;51.424;6.762;2023-02-01T17:38:40;19.20;;;4.07;;
9007;SDS011;62813;51.424;6.762;2023-02-01T17:41:10;19.73;;;4.00;;
9007;SDS011;62813;51.424;6.762;2023-02-01T17:43:37;16.67;;;4.10;;
9007;SDS011;62813;51.424;6.762;2023-02-01T17:48:39;14.57;;;4.07;;
9007;SDS011;62813;51.424;6.762;2023-02-01T17:51:16;19.27;;;4.40;;
9007;SDS011;62813;51.424;6.762;2023-02-01T17:53:45;18.27;;;4.90;;
9007;SDS011;62813;51.424;6.762;2023-02-01T17:56:13;19.53;;;4.13;;
9007;SDS011;62813;51.424;6.762;2023-02-01T17:58:42;15.67;;;3.93;;
9007;SDS011;62813;51.424;6.762;2023-02-01T18:01:20;16.40;;;4.23;;
9007;SDS011;62813;51.424;6.762;2023-02-01T18:03:49;11.90;;;3.27;;
9007;SDS011;62813;51.424;6.762;2023-02-01T18:06:25;25.73;;;5.50;;
9007;SDS011;62813;51.424;6.762;2023-02-01T18:08:52;21.67;;;4.57;;
9007;SDS011;62813;51.424;6.762;2023-02-01T18:11:20;16.93;;;4.10;;
9007;SDS011;62813;51.424;6.762;2023-02-01T18:13:48;18.57;;;3.60;;